Time;durP1;ratioP1;P1;durP2;ratioP2;P2;SDS_P1;SDS_P2;PMS_P1;PMS_P2;Temp;Humidity;BMP_temperature;BMP_pressure;BME280_temperature;BME280_humidity;BME280_pressure;Samples;Min_cycle;Max_cycle;Signal;HPM_P1;HPM_P2
2022/12/17 13:06:48;;;;;;;75.27;35.33;;;0.50;99.90;;;;;;5076043;28;20158;-81
2022/12/17 13:09:46;;;;;;;75.23;34.00;;;0.50;99.90;;;;;;5057068;28;20035;-83
2022/12/17 13:12:45;;;;;;;74.13;33.40;;;0.50;99.90;;;;;;5055835;28;20064;-80
2022/12/17 13:15:40;;;;;;;79.23;33.37;;;0.40;99.90;;;;;;5054295;28;20040;-83
2022/12/17 13:18:35;;;;;;;73.03;32.40;;;0.40;99.90;;;;;;5054945;28;20393;-81
2022/12/17 13:21:20;;;;;;;71.67;31.93;;;;;;;;;;5046117;28;20090;-81
2022/12/17 13:24:21;;;;;;;77.53;34.00;;;0.40;99.90;;;;;;5055046;28;20051;-82
2022/12/17 13:27:25;;;;;;;70.63;32.70;;;0.50;99.90;;;;;;5059327;28;20055;-82
2022/12/17 13:30:20;;;;;;;67.45;30.88;;;0.20;99.90;;;;;;5051567;28;20035;-82
2022/12/17 13:33:05;;;;;;;72.60;33.07;;;;;;;;;;5055230;28;20450;-81
2022/12/17 13:36:21;;;;;;;79.47;34.33;;;0.60;99.90;;;;;;5053311;28;20167;-82
2022/12/17 13:39:22;;;;;;;90.27;34.53;;;0.40;99.90;;;;;;5046949;28;20067;-82
2022/12/17 13:42:28;;;;;;;77.30;34.13;;;0.40;99.90;;;;;;5048274;28;20032;-81
2022/12/17 13:45:19;;;;;;;67.73;32.63;;;0.30;99.90;;;;;;5064758;28;20052;-82
2022/12/17 13:48:04;;;;;;;76.67;34.20;;;0.50;99.90;;;;;;5055505;28;20111;-81
2022/12/17 13:51:00;;;;;;;77.13;34.30;;;0.20;99.90;;;;;;5053499;28;20055;-81
2022/12/17 13:53:53;;;;;;;67.70;33.60;;;0.40;99.90;;;;;;5052274;28;20102;-81
2022/12/17 13:56:38;;;;;;;78.30;35.83;;;;;;;;;;5053541;28;20083;-81
2022/12/17 13:59:24;;;;;;;69.97;32.80;;;0.40;99.90;;;;;;5054713;28;20048;-81
2022/12/17 14:02:25;;;;;;;76.77;34.17;;;0.30;99.90;;;;;;5054475;28;20060;-81
2022/12/17 14:05:29;;;;;;;72.37;32.83;;;0.30;99.90;;;;;;5053863;28;20047;-81
2022/12/17 14:08:17;;;;;;;69.40;33.77;;;0.20;99.90;;;;;;5055196;28;20167;-81
2022/12/17 14:14:33;;;;;;;69.07;34.42;;;0.10;99.90;;;;;;5053986;28;20106;-81
2022/12/17 14:17:26;;;;;;;70.70;33.57;;;-0.10;99.90;;;;;;5054862;28;20265;-81
2022/12/17 14:20:14;;;;;;;77.50;33.53;;;0.20;99.90;;;;;;5045692;28;20114;-81
2022/12/17 14:23:00;;;;;;;73.40;31.20;;;0.00;99.90;;;;;;5053302;28;20032;-81
2022/12/17 14:25:45;;;;;;;73.97;35.27;;;;;;;;;;5054430;28;20044;-81
2022/12/17 14:28:32;;;;;;;75.83;33.70;;;-0.10;99.90;;;;;;5043835;28;20067;-81
2022/12/17 14:31:23;;;;;;;80.37;34.53;;;-0.10;99.90;;;;;;5053477;28;20086;-81
2022/12/17 14:34:12;;;;;;;78.83;33.07;;;;;;;;;;5053243;28;20468;-81
2022/12/17 14:36:59;;;;;;;77.00;33.03;;;-0.30;99.90;;;;;;5043013;28;20121;-81
2022/12/17 14:39:45;;;;;;;73.90;32.30;;;-0.30;99.90;;;;;;5053440;28;20492;-81
2022/12/17 14:42:31;;;;;;;81.50;33.03;;;;;;;;;;5054261;28;20397;-81
2022/12/17 14:45:16;;;;;;;74.83;32.43;;;;;;;;;;5071526;28;20579;-81
2022/12/17 14:48:05;;;;;;;77.97;33.57;;;;;;;;;;5074039;28;20039;-81
2022/12/17 14:50:54;;;;;;;75.73;33.70;;;-0.50;99.90;;;;;;5048275;28;20082;-81
2022/12/17 14:53:38;;;;;;;71.43;31.93;;;;;;;;;;5074601;28;20503;-80
2022/12/17 14:56:23;;;;;;;73.73;33.03;;;;;;;;;;5074460;28;20043;-80
2022/12/17 14:59:27;;;;;;;77.57;33.30;;;-0.60;99.90;;;;;;5058708;28;20097;-81
2022/12/17 15:02:25;;;;;;;74.00;33.25;;;-0.70;99.90;;;;;;5072548;28;20055;-81
2022/12/17 15:05:16;;;;;;;85.47;33.53;;;-0.50;99.90;;;;;;5073629;28;20403;-80
2022/12/17 15:08:00;;;;;;;83.80;32.23;;;;;;;;;;5050627;28;20392;-81
2022/12/17 15:10:45;;;;;;;83.77;34.17;;;;;;;;;;5074011;28;20039;-81
2022/12/17 15:13:30;;;;;;;82.40;34.60;;;;;;;;;;5074007;28;20158;-81
2022/12/17 15:16:14;;;;;;;79.30;30.80;;;;;;;;;;5072790;28;20107;-81
2022/12/17 15:19:00;;;;;;;85.70;33.53;;;;;;;;;;5073320;28;20102;-81
2022/12/17 15:21:44;;;;;;;80.70;33.10;;;;;;;;;;5073019;28;20055;-81
2022/12/17 15:24:29;;;;;;;83.60;32.13;;;;;;;;;;5069986;28;20035;-81
2022/12/17 15:27:15;;;;;;;89.20;33.33;;;-0.80;99.90;;;;;;5071355;28;20036;-82
2022/12/17 15:29:59;;;;;;;82.47;31.87;;;;;;;;;;5058839;28;20099;-81
2022/12/17 15:32:44;;;;;;;85.17;31.97;;;;;;;;;;5051082;28;20044;-82
2022/12/17 15:35:29;;;;;;;79.10;30.27;;;;;;;;;;5051225;28;20449;-82
2022/12/17 15:38:14;;;;;;;79.27;31.17;;;;;;;;;;5052428;28;20039;-82
2022/12/17 15:43:09;;;;;;;86.33;30.90;;;-0.90;99.90;;;;;;5052892;28;20475;-82
2022/12/17 15:44:08;;;;;;;80.17;30.03;;;;;;;;;;5051828;28;20039;-83
2022/12/17 15:46:52;;;;;;;77.37;31.87;;;;;;;;;;5054075;28;20068;-83
2022/12/17 15:49:36;;;;;;;81.27;29.47;;;;;;;;;;5037097;28;20044;-83
2022/12/17 15:52:21;;;;;;;85.57;31.87;;;;;;;;;;5050978;28;20055;-82
2022/12/17 15:55:06;;;;;;;87.97;32.13;;;;;;;;;;5051084;28;20408;-83
2022/12/17 15:57:51;;;;;;;76.97;30.03;;;;;;;;;;5052065;28;20484;-83
2022/12/17 16:00:35;;;;;;;81.57;30.30;;;;;;;;;;5055267;28;20052;-83
2022/12/17 16:03:20;;;;;;;80.97;28.67;;;;;;;;;;5052100;28;20102;-83
2022/12/17 16:06:04;;;;;;;66.83;28.27;;;;;;;;;;5049680;28;20102;-82
2022/12/17 16:08:49;;;;;;;80.23;28.20;;;;;;;;;;5050949;28;20044;-83
2022/12/17 16:11:33;;;;;;;83.00;30.13;;;;;;;;;;5037221;28;20389;-83
2022/12/17 16:14:18;;;;;;;84.17;33.13;;;;;;;;;;5050481;28;20460;-83
2022/12/17 16:17:02;;;;;;;85.90;33.77;;;;;;;;;;5050468;28;20055;-83
2022/12/17 16:19:47;;;;;;;84.40;32.53;;;;;;;;;;5035691;28;20036;-82
2022/12/17 16:22:32;;;;;;;80.77;28.13;;;;;;;;;;5051145;28;20401;-83
2022/12/17 16:25:16;;;;;;;77.37;32.00;;;-1.50;99.90;;;;;;5050313;28;20044;-83
2022/12/17 16:28:01;;;;;;;86.83;30.40;;;;;;;;;;5036508;28;20040;-83
2022/12/17 16:31:06;;;;;;;99.57;32.73;;;-1.40;99.90;;;;;;5052169;28;20040;-83
2022/12/17 16:33:51;;;;;;;93.23;33.87;;;;;;;;;;5051215;28;20451;-82
2022/12/17 16:36:35;;;;;;;88.57;30.53;;;;;;;;;;5050011;28;20122;-83
2022/12/17 16:39:20;;;;;;;95.60;31.37;;;-1.30;99.90;;;;;;5051879;28;20044;-83
2022/12/17 16:42:05;;;;;;;86.50;31.40;;;;;;;;;;5049332;28;20079;-84
2022/12/17 16:44:49;;;;;;;96.00;35.90;;;;;;;;;;5051470;28;20098;-83
2022/12/17 16:47:34;;;;;;;88.83;31.27;;;;;;;;;;5050029;28;20040;-83
2022/12/17 16:50:18;;;;;;;85.07;31.17;;;;;;;;;;5050917;28;20043;-83
2022/12/17 16:53:03;;;;;;;86.43;29.90;;;;;;;;;;5050095;28;20122;-85
2022/12/17 16:55:48;;;;;;;94.77;31.87;;;-1.50;99.90;;;;;;5051208;28;20233;-83
2022/12/17 16:58:33;;;;;;;83.40;28.13;;;;;;;;;;5051580;28;20036;-83
2022/12/17 17:01:19;;;;;;;84.03;30.03;;;-1.60;99.90;;;;;;5041123;28;20469;-83
2022/12/17 17:04:06;;;;;;;78.73;29.27;;;-1.60;99.90;;;;;;5051054;28;20493;-83
2022/12/17 17:06:53;;;;;;;78.70;30.20;;;-1.60;99.90;;;;;;5052397;28;20419;-83
2022/12/17 17:09:38;;;;;;;80.10;28.27;;;;;;;;;;5051416;28;20040;-83
2022/12/17 17:12:24;;;;;;;89.30;30.53;;;;;;;;;;5050445;28;20131;-83
2022/12/17 17:15:09;;;;;;;84.13;28.03;;;-1.50;99.90;;;;;;5051772;28;20044;-82
2022/12/17 17:17:53;;;;;;;88.10;31.60;;;;;;;;;;5050624;28;20075;-84
2022/12/17 17:20:38;;;;;;;93.70;35.57;;;;;;;;;;5051665;28;20072;-83
2022/12/17 17:23:22;;;;;;;100.73;30.40;;;;;;;;;;5049610;28;20452;-84
2022/12/17 17:26:08;;;;;;;92.07;30.23;;;;;;;;;;5051387;28;20416;-85
2022/12/17 17:28:53;;;;;;;90.80;32.70;;;;;;;;;;5051738;28;20044;-84
2022/12/17 17:31:38;;;;;;;96.57;32.87;;;;;;;;;;5049074;28;20067;-84
2022/12/17 17:34:22;;;;;;;89.67;27.50;;;-1.70;99.90;;;;;;5047691;28;20040;-84
2022/12/17 17:37:15;;;;;;;90.80;32.03;;;;;;;;;;5036169;28;20051;-84
2022/12/17 17:40:00;;;;;;;88.17;30.57;;;;;;;;;;5036324;28;20078;-84
2022/12/17 17:42:48;;;;;;;90.03;30.27;;;;;;;;;;5050223;28;20028;-83
2022/12/17 17:45:33;;;;;;;87.10;29.43;;;;;;;;;;5057763;28;20409;-84
2022/12/17 17:48:17;;;;;;;88.00;27.50;;;;;;;;;;5050293;28;20060;-85
2022/12/17 17:51:03;;;;;;;78.97;28.77;;;;;;;;;;5053975;28;20094;-84
2022/12/17 17:53:49;;;;;;;97.77;32.50;;;;;;;;;;5054516;28;20512;-84
2022/12/17 17:56:36;;;;;;;94.63;31.57;;;;;;;;;;5047209;28;20128;-84
2022/12/17 17:59:22;;;;;;;91.00;30.27;;;;;;;;;;5053793;28;20035;-84
2022/12/17 18:02:09;;;;;;;81.60;28.83;;;;;;;;;;5054232;28;20040;-85
2022/12/17 18:04:54;;;;;;;90.63;30.43;;;;;;;;;;5039787;28;20151;-85
2022/12/17 18:07:39;;;;;;;90.90;28.27;;;;;;;;;;5054045;28;20040;-84
2022/12/17 18:10:24;;;;;;;90.40;29.37;;;;;;;;;;5053698;28;20118;-84
2022/12/17 18:16:12;;;;;;;96.87;30.90;;;;;;;;;;5054002;28;20400;-83
2022/12/17 18:19:01;;;;;;;89.67;29.67;;;;;;;;;;5054145;28;20082;-84
2022/12/17 18:21:49;;;;;;;98.33;31.70;;;;;;;;;;5054897;28;20040;-84
2022/12/17 18:24:34;;;;;;;102.50;33.63;;;;;;;;;;5054357;28;20079;-84
2022/12/17 18:27:18;;;;;;;92.33;33.07;;;;;;;;;;5046758;28;20090;-85
2022/12/17 18:30:03;;;;;;;101.70;36.97;;;;;;;;;;5054726;28;20040;-82
2022/12/17 18:32:48;;;;;;;107.90;35.33;;;;;;;;;;5053278;28;20094;-83
2022/12/17 18:35:32;;;;;;;100.47;32.37;;;;;;;;;;5038936;28;20106;-83
2022/12/17 18:38:17;;;;;;;100.90;32.77;;;;;;;;;;5039186;28;20086;-85
2022/12/17 18:43:21;;;;;;;101.57;34.87;;;-2.10;99.90;;;;;;5039172;28;20036;-83
2022/12/17 18:44:14;;;;;;;105.80;33.63;;;-2.00;99.90;;;;;;5058849;28;20032;-83
2022/12/17 18:46:59;;;;;;;105.23;32.83;;;;;;;;;;5052909;28;20039;-83
2022/12/17 18:49:44;;;;;;;102.77;33.27;;;;;;;;;;5053430;28;20526;-84
2022/12/17 18:52:28;;;;;;;111.37;35.53;;;;;;;;;;5037477;28;20064;-83
2022/12/17 18:55:13;;;;;;;106.27;34.77;;;;;;;;;;5052654;28;20094;-84
2022/12/17 18:57:59;;;;;;;98.07;33.13;;;;;;;;;;5050370;28;20163;-84
2022/12/17 19:00:44;;;;;;;109.87;37.40;;;;;;;;;;5047899;28;20033;-84
2022/12/17 19:03:29;;;;;;;95.10;31.83;;;;;;;;;;5034225;28;20048;-84
2022/12/17 19:06:14;;;;;;;100.57;31.83;;;;;;;;;;5048157;28;20052;-84
2022/12/17 19:08:58;;;;;;;95.80;34.77;;;;;;;;;;5050337;28;20410;-84
2022/12/17 19:11:43;;;;;;;90.63;33.57;;;;;;;;;;5049922;28;20040;-84
2022/12/17 19:14:28;;;;;;;83.13;30.97;;;;;;;;;;5037648;28;20043;-84
2022/12/17 19:17:13;;;;;;;81.30;31.77;;;;;;;;;;5049142;28;20397;-84
2022/12/17 19:19:57;;;;;;;88.20;33.37;;;;;;;;;;5049317;28;20222;-84
2022/12/17 19:22:42;;;;;;;89.93;34.57;;;;;;;;;;5049773;28;20102;-84
2022/12/17 19:25:27;;;;;;;90.00;33.90;;;;;;;;;;5048600;28;20090;-84
2022/12/17 19:28:11;;;;;;;87.73;34.23;;;;;;;;;;5040674;28;20040;-83
2022/12/17 19:30:56;;;;;;;91.27;34.37;;;;;;;;;;5048536;28;20075;-84
2022/12/17 19:33:40;;;;;;;87.37;35.60;;;;;;;;;;5048078;28;20036;-84
2022/12/17 19:36:26;;;;;;;92.23;34.13;;;;;;;;;;5034001;28;20443;-85
2022/12/17 19:39:12;;;;;;;83.10;34.70;;;;;;;;;;5047169;28;20032;-85
2022/12/17 19:41:57;;;;;;;87.87;32.97;;;;;;;;;;5047963;28;20401;-85
2022/12/17 19:44:44;;;;;;;98.23;36.13;;;;;;;;;;5049482;28;20082;-86
2022/12/17 19:47:29;;;;;;;92.97;36.40;;;;;;;;;;5045335;28;20079;-85
2022/12/17 19:50:14;;;;;;;97.50;37.80;;;;;;;;;;5048661;28;20044;-85
2022/12/17 19:52:59;;;;;;;107.50;39.10;;;;;;;;;;5039150;28;20136;-84
2022/12/17 19:55:43;;;;;;;99.90;39.47;;;;;;;;;;5048949;28;20098;-84
2022/12/17 19:58:28;;;;;;;97.87;37.20;;;;;;;;;;5048499;28;20047;-84
2022/12/17 20:01:20;;;;;;;95.77;38.43;;;;;;;;;;5048763;28;20082;-86
2022/12/17 20:04:05;;;;;;;102.83;37.93;;;;;;;;;;5048961;28;20036;-85
2022/12/17 20:06:50;;;;;;;98.37;38.47;;;;;;;;;;5040768;28;20103;-85
2022/12/17 20:09:34;;;;;;;90.73;34.77;;;;;;;;;;5047956;28;20580;-85
2022/12/17 20:12:19;;;;;;;100.83;37.67;;;;;;;;;;5047398;28;20067;-85
2022/12/17 20:15:07;;;;;;;87.80;37.17;;;;;;;;;;5038397;28;20082;-85
2022/12/17 20:17:52;;;;;;;102.47;38.33;;;;;;;;;;5047684;28;20039;-85
2022/12/17 20:20:36;;;;;;;96.10;37.87;;;;;;;;;;5047707;28;20063;-85
2022/12/17 20:23:21;;;;;;;101.03;38.53;;;;;;;;;;5048960;28;20043;-85
2022/12/17 20:26:11;;;;;;;94.87;37.17;;;;;;;;;;5048163;28;20071;-86
2022/12/17 20:28:55;;;;;;;90.90;38.53;;;;;;;;;;5041179;28;20204;-85
2022/12/17 20:31:41;;;;;;;98.30;38.63;;;;;;;;;;5047820;28;20083;-85
2022/12/17 20:34:26;;;;;;;98.77;38.10;;;;;;;;;;5047827;28;20039;-85
2022/12/17 20:37:10;;;;;;;104.20;39.00;;;;;;;;;;5038648;28;20040;-85
2022/12/17 20:39:55;;;;;;;99.30;36.70;;;;;;;;;;5046942;28;20031;-86
2022/12/17 20:42:39;;;;;;;96.70;33.87;;;;;;;;;;5047446;28;20086;-85
2022/12/17 20:45:24;;;;;;;98.10;36.00;;;;;;;;;;5068378;28;20500;-84
2022/12/17 20:48:08;;;;;;;100.77;38.10;;;;;;;;;;5053443;28;20102;-85
2022/12/17 20:50:53;;;;;;;95.57;33.27;;;;;;;;;;5050522;28;20389;-85
2022/12/17 20:53:38;;;;;;;96.57;36.10;;;;;;;;;;5050181;28;20070;-85
2022/12/17 20:56:25;;;;;;;100.27;36.20;;;;;;;;;;5050594;28;20043;-85
2022/12/17 20:59:13;;;;;;;103.03;36.37;;;;;;;;;;5051791;28;20108;-85
2022/12/17 21:02:01;;;;;;;104.60;40.03;;;;;;;;;;5050564;28;20493;-85
2022/12/17 21:04:55;;;;;;;109.73;37.63;;;;;;;;;;5050460;28;20035;-85
2022/12/17 21:07:44;;;;;;;97.13;35.77;;;;;;;;;;5051228;28;20526;-85
2022/12/17 21:10:29;;;;;;;102.83;36.20;;;;;;;;;;5050917;28;20060;-85
2022/12/17 21:13:28;;;;;;;104.83;36.03;;;;;;;;;;5051107;28;20162;-84
2022/12/17 21:16:24;;;;;;;101.43;37.37;;;;;;;;;;5055462;28;20439;-84
2022/12/17 21:19:10;;;;;;;104.97;37.07;;;;;;;;;;5050411;28;20063;-84
2022/12/17 21:21:57;;;;;;;100.80;37.37;;;;;;;;;;5050566;28;20040;-85
2022/12/17 21:24:42;;;;;;;101.57;35.63;;;;;;;;;;5054227;28;20107;-84
2022/12/17 21:27:30;;;;;;;106.30;37.47;;;;;;;;;;5037156;28;20084;-84
2022/12/17 21:30:20;;;;;;;107.97;38.60;;;;;;;;;;5055050;28;20393;-85
2022/12/17 21:33:08;;;;;;;107.40;37.07;;;;;;;;;;5053218;28;20032;-85
2022/12/17 21:36:02;;;;;;;92.17;35.07;;;;;;;;;;5036219;28;20125;-85
2022/12/17 21:38:49;;;;;;;107.85;37.90;;;;;;;;;;5054455;28;20487;-85
2022/12/17 21:41:39;;;;;;;109.47;37.30;;;;;;;;;;5053457;28;20469;-85
2022/12/17 21:44:24;;;;;;;106.67;37.67;;;;;;;;;;5064477;28;20039;-85
2022/12/17 21:47:08;;;;;;;109.40;36.63;;;;;;;;;;5075658;28;20051;-85
2022/12/17 21:49:53;;;;;;;126.47;40.17;;;;;;;;;;5074245;28;20055;-85
2022/12/17 21:52:38;;;;;;;122.77;37.30;;;;;;;;;;5060349;28;20068;-85
2022/12/17 21:55:25;;;;;;;111.43;36.50;;;;;;;;;;5074325;28;20042;-85
2022/12/17 21:58:10;;;;;;;117.23;38.17;;;;;;;;;;5074754;28;20102;-84
2022/12/17 22:00:57;;;;;;;106.77;38.20;;;;;;;;;;5073758;28;20074;-85
2022/12/17 22:03:46;;;;;;;114.13;38.97;;;;;;;;;;5075181;28;20034;-84
2022/12/17 22:06:32;;;;;;;111.00;39.50;;;;;;;;;;5074222;28;20123;-85
2022/12/17 22:09:20;;;;;;;107.30;37.40;;;;;;;;;;5074063;28;20035;-85
2022/12/17 22:15:09;;;;;;;105.70;35.70;;;;;;;;;;5074829;28;20046;-85
2022/12/17 22:17:55;;;;;;;109.80;35.47;;;;;;;;;;5073563;28;20066;-85
2022/12/17 22:20:43;;;;;;;108.13;36.93;;;;;;;;;;5073783;28;20495;-85
2022/12/17 22:23:31;;;;;;;103.23;33.67;;;;;;;;;;5073966;28;20035;-85
2022/12/17 22:26:19;;;;;;;99.27;31.60;;;;;;;;;;5073758;28;20051;-84
2022/12/17 22:29:07;;;;;;;121.70;36.30;;;;;;;;;;5073451;28;20040;-84
2022/12/17 22:34:58;;;;;;;109.60;36.63;;;;;;;;;;5073503;28;20504;-85
2022/12/17 22:37:43;;;;;;;107.60;35.00;;;;;;;;;;5073501;28;20030;-85
2022/12/17 22:40:28;;;;;;;106.20;35.60;;;;;;;;;;5073721;28;20039;-84
2022/12/17 22:43:28;;;;;;;108.43;32.73;;;;;;;;;;5074065;28;20031;-85
2022/12/17 22:46:13;;;;;;;90.17;31.60;;;;;;;;;;5073129;28;20550;-85
2022/12/17 22:48:58;;;;;;;107.77;33.87;;;;;;;;;;5072989;28;20035;-84
2022/12/17 22:51:43;;;;;;;101.63;35.10;;;;;;;;;;5073215;28;20556;-85
2022/12/17 22:54:30;;;;;;;110.23;35.37;;;;;;;;;;5073422;28;20048;-85
2022/12/17 22:57:15;;;;;;;101.53;33.43;;;;;;;;;;5072841;28;20075;-85
2022/12/17 23:00:04;;;;;;;108.47;33.43;;;;;;;;;;5073924;28;20443;-85
2022/12/17 23:02:51;;;;;;;105.40;33.47;;;;;;;;;;5073272;28;20176;-85
2022/12/17 23:05:38;;;;;;;107.73;32.63;;;;;;;;;;5072974;28;20047;-85
2022/12/17 23:08:26;;;;;;;107.07;33.67;;;;;;;;;;5073126;28;20085;-85
2022/12/17 23:11:31;;;;;;;100.80;35.07;;;;;;;;;;5072685;28;20464;-85
2022/12/17 23:14:16;;;;;;;109.60;32.87;;;;;;;;;;5073512;28;20051;-85
2022/12/17 23:17:06;;;;;;;101.50;32.30;;;;;;;;;;5058634;28;20091;-85
2022/12/17 23:19:51;;;;;;;117.47;34.30;;;;;;;;;;5059346;28;20086;-85
2022/12/17 23:22:36;;;;;;;107.50;32.67;;;;;;;;;;5072696;28;20562;-85
2022/12/17 23:25:21;;;;;;;117.27;35.37;;;;;;;;;;5072308;28;20051;-84
2022/12/17 23:28:05;;;;;;;111.10;32.03;;;;;;;;;;5072177;28;20048;-85
2022/12/17 23:30:50;;;;;;;94.30;30.93;;;;;;;;;;5072571;28;20496;-85
2022/12/17 23:33:34;;;;;;;101.13;30.67;;;;;;;;;;5073690;28;20044;-85
2022/12/17 23:36:20;;;;;;;107.10;33.13;;;;;;;;;;5073002;28;20109;-86
2022/12/17 23:39:05;;;;;;;108.13;32.47;;;;;;;;;;5073089;28;20043;-85
2022/12/17 23:41:49;;;;;;;103.27;34.27;;;;;;;;;;5072633;28;20055;-85
2022/12/17 23:44:34;;;;;;;109.70;31.83;;;;;;;;;;5073320;28;20057;-85
2022/12/17 23:47:19;;;;;;;115.53;34.40;;;;;;;;;;5072007;28;20047;-85
2022/12/17 23:50:03;;;;;;;103.30;32.57;;;;;;;;;;5072652;28;20043;-85
2022/12/17 23:52:48;;;;;;;126.67;37.70;;;;;;;;;;5073336;28;20570;-85
2022/12/17 23:55:33;;;;;;;125.33;34.93;;;;;;;;;;5072031;28;20089;-85
2022/12/17 23:58:17;;;;;;;115.83;34.80;;;;;;;;;;5072850;28;20097;-85
